Time;durP1;ratioP1;P1;durP2;ratioP2;P2;SDS_P1;SDS_P2;PMS_P1;PMS_P2;Temp;Humidity;BMP_temperature;BMP_pressure;BME280_temperature;BME280_humidity;BME280_pressure;Samples;Min_cycle;Max_cycle;Signal;HPM_P1;HPM_P2
2022/04/09 11:07:33;;;;;;;;;;;;;;;5.93;55.90;97425.56;4997776;27;2955503;-79
2022/04/09 11:10:34;;;;;;;;;;;;;;;5.72;56.02;97422.34;5078017;28;19931;-78
2022/04/09 11:37:57;;;;;;;;;;;;;;;6.16;53.58;97439.22;4983821;28;19922;-74
2022/04/09 11:40:25;;;;;;;;;;;;;;;6.55;52.76;97436.97;4980775;28;20021;-73
2022/04/09 11:42:54;;;;;;;;;;;;;;;6.66;53.89;97443.00;4953142;28;20286;-73
2022/04/09 11:45:23;;;;;;;;;;;;;;;6.04;53.20;97453.97;4951629;28;19926;-71
2022/04/09 11:47:51;;;;;;;;;;;;;;;5.96;52.77;97459.22;4982223;28;19926;-73
2022/04/09 11:50:19;;;;;;;;;;;;;;;6.09;53.15;97458.50;4995589;28;19926;-73
2022/04/09 11:53:13;;;;;;;;;;;;;;;6.01;53.71;97464.53;5026577;28;19925;-73
2022/04/09 11:55:43;;;;;;;;;;;;;;;6.02;54.28;97455.38;5023710;28;19925;-73
2022/04/09 11:58:15;;;;;;;;;;;;;;;6.24;53.98;97458.25;5058076;28;19974;-71
2022/04/09 12:00:46;;;;;;;;;;;;;;;6.59;53.19;97472.25;5074394;28;19974;-71
2022/04/09 12:03:14;;;;;;;;;;;;;;;6.65;51.55;97486.47;5088244;28;19931;-71
2022/04/09 12:05:44;;;;;;;;;;;;;;;6.37;52.56;97464.78;5097164;28;20018;-71
2022/04/09 12:08:13;;;;;;;;;;;;;;;6.41;52.29;97462.31;5072518;28;19924;-71
2022/04/09 12:10:52;;;;;;;;;;;;;;;6.47;52.51;97463.81;5055795;28;19939;-73
2022/04/09 12:13:25;;;;;;;;;;;;;;;6.60;52.56;97473.84;5083615;28;20386;-72
2022/04/09 12:15:53;;;;;;;;;;;;;;;6.43;51.22;97458.22;5071702;28;19924;-73
2022/04/09 12:18:28;;;;;;;;;;;;;;;6.76;51.93;97461.69;5061279;28;20298;-73
2022/04/09 12:20:56;;;;;;;;;;;;;;;7.11;50.18;97458.66;5086366;28;20330;-72
2022/04/09 12:23:30;;;;;;;;;;;;;;;7.08;51.56;97476.22;5076401;28;19924;-72
2022/04/09 12:26:00;;;;;;;;;;;;;;;6.86;50.74;97459.91;5065444;28;19990;-73
2022/04/09 12:28:31;;;;;;;;;;;;;;;6.86;50.65;97468.81;5060913;28;20386;-71
2022/04/09 12:31:07;;;;;;;;;;;;;;;7.15;50.77;97465.84;5059657;28;20314;-73
2022/04/09 12:33:36;;;;;;;;;;;;;;;7.11;50.94;97469.44;5091590;28;20395;-72
2022/04/09 12:36:10;;;;;;;;;;;;;;;7.27;49.09;97465.34;5060664;28;19925;-90
2022/04/09 12:38:41;;;;;;;;;;;;;;;7.05;49.75;97487.66;5063088;28;19932;-75
2022/04/09 12:41:15;;;;;;;;;;;;;;;6.82;49.52;97465.91;5079066;28;19951;-74
2022/04/09 12:43:44;;;;;;;;;;;;;;;6.64;48.63;97461.38;5084400;28;19924;-76
2022/04/09 12:46:13;;;;;;;;;;;;;;;6.62;48.36;97462.78;5083929;28;19924;-71
2022/04/09 12:48:42;;;;;;;;;;;;;;;6.81;50.04;97456.19;5073108;28;19932;-71
2022/04/09 12:51:12;;;;;;;;;;;;;;;7.21;48.90;97453.03;5057556;28;19956;-71
2022/04/09 12:53:40;;;;;;;;;;;;;;;7.54;47.83;97449.09;5054068;28;19971;-71
2022/04/09 12:56:09;;;;;;;;;;;;;;;7.58;47.84;97447.41;5080103;28;20010;-72
2022/04/09 12:58:38;;;;;;;;;;;;;;;7.21;48.27;97453.03;5076781;28;19924;-73
2022/04/09 13:04:02;;;;;;;;;;;;;;;6.83;49.51;97458.63;5092541;28;19938;-74
2022/04/09 13:06:31;;;;;;;;;;;;;;;7.00;49.49;97458.03;5101676;28;19932;-76
2022/04/09 13:09:00;;;;;;;;;;;;;;;7.18;48.62;97438.22;5064716;28;19931;-75
2022/04/09 13:11:29;;;;;;;;;;;;;;;7.41;48.99;97439.13;5058304;28;20141;-76
2022/04/09 13:13:59;;;;;;;;;;;;;;;7.29;47.09;97436.91;5097778;28;19924;-88
2022/04/09 13:16:27;;;;;;;;;;;;;;;7.45;46.64;97425.78;5104482;28;20226;-76
2022/04/09 13:18:55;;;;;;;;;;;;;;;7.56;45.34;97435.28;5068606;28;20383;-77
2022/04/09 13:21:24;;;;;;;;;;;;;;;7.53;45.36;97436.69;5076791;28;20345;-75
2022/04/09 13:23:54;;;;;;;;;;;;;;;7.53;45.38;97425.09;5052895;28;19932;-77
2022/04/09 13:26:22;;;;;;;;;;;;;;;7.32;45.89;97427.41;5079368;28;19939;-76
2022/04/09 13:28:50;;;;;;;;;;;;;;;7.28;46.47;97416.41;5092146;28;19924;-75
2022/04/09 13:31:20;;;;;;;;;;;;;;;7.61;46.59;97427.06;5092421;28;20007;-76
2022/04/09 13:33:50;;;;;;;;;;;;;;;7.57;46.13;97423.38;5094189;28;19951;-73
2022/04/09 13:36:18;;;;;;;;;;;;;;;7.92;46.29;97418.28;5067799;28;20341;-73
2022/04/09 13:38:46;;;;;;;;;;;;;;;7.78;46.65;97413.72;5061190;28;19931;-74
2022/04/09 13:41:16;;;;;;;;;;;;;;;7.61;46.75;97405.44;5080217;28;20313;-73
2022/04/09 13:43:44;;;;;;;;;;;;;;;7.87;46.95;97413.78;5096178;28;20400;-74
2022/04/09 13:46:12;;;;;;;;;;;;;;;7.54;45.30;97407.75;5058159;28;19924;-72
2022/04/09 13:48:42;;;;;;;;;;;;;;;7.54;46.26;97418.56;5078996;28;19931;-78
2022/04/09 13:51:12;;;;;;;;;;;;;;;7.81;45.05;97423.91;5069169;28;20552;-77
2022/04/09 13:53:40;;;;;;;;;;;;;;;8.02;45.68;97420.75;5098939;28;19928;-76
2022/04/09 13:56:08;;;;;;;;;;;;;;;7.85;45.04;97429.53;5104659;28;19924;-75
2022/04/09 13:58:39;;;;;;;;;;;;;;;7.72;45.27;97425.72;5083406;28;19924;-87
2022/04/09 14:01:17;;;;;;;;;;;;;;;7.64;45.64;97426.47;5060458;28;19925;-82
2022/04/09 14:03:47;;;;;;;;;;;;;;;7.81;45.37;97423.13;5090566;28;19924;-77
2022/04/09 14:09:07;;;;;;;;;;;;;;;7.94;44.80;97430.41;5073795;28;19931;-79
2022/04/09 14:11:35;;;;;;;;;;;;;;;8.30;44.44;97430.34;5077989;28;19924;-90
2022/04/09 14:14:03;;;;;;;;;;;;;;;8.42;43.88;97423.63;5055601;28;19946;-76
2022/04/09 14:16:31;;;;;;;;;;;;;;;8.54;43.63;97432.78;5075097;28;19924;-79
2022/04/09 14:19:01;;;;;;;;;;;;;;;8.34;43.19;97425.91;5073576;28;19984;-80
2022/04/09 14:21:35;;;;;;;;;;;;;;;8.57;45.08;97434.03;5072412;28;19932;-82
2022/04/09 14:24:04;;;;;;;;;;;;;;;7.97;44.39;97426.28;5085572;28;19963;-83
2022/04/09 14:26:31;;;;;;;;;;;;;;;7.90;45.57;97431.31;5090464;28;19950;-80
2022/04/09 14:29:11;;;;;;;;;;;;;;;7.85;44.61;97424.13;5085280;28;20366;-83
2022/04/09 14:31:39;;;;;;;;;;;;;;;8.00;44.97;97441.91;5075657;28;19924;-80
2022/04/09 14:34:11;;;;;;;;;;;;;;;7.95;43.45;97437.41;5072936;28;19972;-82
2022/04/09 14:36:39;;;;;;;;;;;;;;;7.66;44.27;97445.09;5046303;28;20015;-79
2022/04/09 14:39:15;;;;;;;;;;;;;;;7.60;45.73;97449.78;5058136;28;19936;-77
2022/04/09 14:41:43;;;;;;;;;;;;;;;7.34;47.12;97479.25;5066186;28;19925;-79
2022/04/09 14:44:12;;;;;;;;;;;;;;;6.94;51.32;97470.03;5054937;28;19924;-77
2022/04/09 14:46:40;;;;;;;;;;;;;;;6.60;52.80;97478.44;5078614;28;19940;-76
2022/04/09 14:49:11;;;;;;;;;;;;;;;6.36;56.17;97490.19;5057471;28;19925;-78
2022/04/09 14:51:39;;;;;;;;;;;;;;;6.08;57.70;97494.66;5041117;28;19947;-76
2022/04/09 14:54:09;;;;;;;;;;;;;;;6.51;57.08;97489.13;5056141;28;19925;-77
2022/04/09 14:56:37;;;;;;;;;;;;;;;6.49;56.31;97492.09;5069512;28;19974;-78
2022/04/09 14:59:24;;;;;;;;;;;;;;;6.30;56.66;97484.06;5038203;28;19925;-84
2022/04/09 15:01:57;;;;;;;;;;;;;;;6.27;56.45;97491.94;5035125;28;20389;-76
2022/04/09 15:04:32;;;;;;;;;;;;;;;6.20;56.36;97500.41;5048138;28;20016;-77
2022/04/09 15:07:01;;;;;;;;;;;;;;;6.33;56.58;97492.66;5083150;28;19935;-80
2022/04/09 15:29:52;;;;;;;;;;;;;;;6.97;52.72;97493.72;6060983;23;20702;-77
2022/04/09 15:33:03;;;;;;;;;;;;;;;6.99;51.56;97483.44;4842300;29;19928;-77
2022/04/09 15:35:35;;;;;;;;;;;;;;;7.16;50.17;97488.25;4824758;29;19929;-77
2022/04/09 15:38:04;;;;;;;;;;;;;;;6.98;49.59;97488.06;4857415;29;19982;-76
2022/04/09 15:40:32;;;;;;;;;;;;;;;7.17;49.51;97506.88;4836375;29;19940;-77
2022/04/09 15:43:00;;;;;;;;;;;;;;;7.04;49.19;97496.84;4845742;29;19928;-78
2022/04/09 16:02:39;;;;;;;;;;;;;;;7.24;45.45;97511.88;4922843;29;19931;-79
2022/04/09 16:06:14;;;;;;;;;;;;;;;7.23;46.36;97505.66;4923131;29;19927;-74
2022/04/09 16:09:08;;;;;;;;;;;;;;;7.34;46.16;97508.97;4909075;29;20009;-76
2022/04/09 16:11:40;;;;;;;;;;;;;;;7.33;46.93;97520.88;4918979;29;19933;-74
2022/04/09 16:14:08;;;;;;;;;;;;;;;7.19;47.36;97517.38;4943646;29;19962;-77
2022/04/09 16:16:36;;;;;;;;;;;;;;;7.24;47.32;97523.47;4939808;29;19934;-76
2022/04/09 16:19:05;;;;;;;;;;;;;;;7.23;48.69;97532.69;4933831;29;19934;-92
2022/04/09 16:21:33;;;;;;;;;;;;;;;7.11;48.36;97545.09;4922270;29;19927;-79
2022/04/09 16:24:05;;;;;;;;;;;;;;;6.90;47.77;97539.22;4931756;29;19918;-80
2022/04/09 16:26:37;;;;;;;;;;;;;;;6.85;48.78;97547.41;4908358;29;19927;-77
2022/04/09 16:29:13;;;;;;;;;;;;;;;5.95;54.34;97563.56;4920631;29;19938;-77
